Time;durP1;ratioP1;P1;durP2;ratioP2;P2;SDS_P1;SDS_P2;PMS_P1;PMS_P2;Temp;Humidity;BMP_temperature;BMP_pressure;BME280_temperature;BME280_humidity;BME280_pressure;Samples;Min_cycle;Max_cycle;Signal;HPM_P1;HPM_P2
2022/08/27 00:00:26;;;;;;;10.87;8.67;;;;;;;;;;4898686;29;20449;-42
2022/08/27 00:02:52;;;;;;;11.17;7.70;;;;;;;;;;4897569;29;20704;-41
2022/08/27 00:05:18;;;;;;;9.23;7.53;;;;;;;;;;4896540;29;20182;-42
2022/08/27 00:07:45;;;;;;;10.00;8.57;;;;;;;;;;4896245;29;20677;-42
2022/08/27 00:10:14;;;;;;;11.67;7.97;;;;;;;;;;4895139;29;20172;-42
2022/08/27 00:12:40;;;;;;;7.90;7.07;;;;;;;;;;4902690;29;20451;-43
2022/08/27 00:15:07;;;;;;;8.67;7.77;;;;;;;;;;4901158;29;20694;-43
2022/08/27 00:17:33;;;;;;;10.37;7.70;;;;;;;;;;4897339;29;20620;-42
2022/08/27 00:20:00;;;;;;;10.43;7.50;;;;;;;;;;4895857;29;20180;-42
2022/08/27 00:22:26;;;;;;;10.30;7.87;;;;;;;;;;4901313;29;20192;-42
2022/08/27 00:24:52;;;;;;;10.53;7.97;;;;;;;;;;4899757;29;20710;-43
2022/08/27 00:27:18;;;;;;;11.97;7.70;;;;;;;;;;4895011;29;20518;-41
2022/08/27 00:29:45;;;;;;;10.87;7.97;;;;;;;;;;4896078;28;20218;-41
2022/08/27 00:32:11;;;;;;;12.10;7.63;;;;;;;;;;4900027;29;20306;-43
2022/08/27 00:34:38;;;;;;;11.87;8.17;;;;;;;;;;4900312;29;20985;-42
2022/08/27 00:37:05;;;;;;;11.63;7.80;;;;;;;;;;4897010;29;20294;-42
2022/08/27 00:39:31;;;;;;;9.30;7.23;;;;;;;;;;4895763;29;20896;-41
2022/08/27 00:41:59;;;;;;;10.27;7.70;;;;;;;;;;4895832;28;20601;-41
2022/08/27 00:44:26;;;;;;;9.40;7.73;;;;;;;;;;4899502;29;20525;-41
2022/08/27 00:46:55;;;;;;;8.83;7.23;;;;;;;;;;4893538;29;20191;-41
2022/08/27 00:49:21;;;;;;;8.37;7.30;;;;;;;;;;4892737;29;20610;-43
2022/08/27 00:51:51;;;;;;;12.93;8.03;;;;;;;;;;4896118;29;20511;-43
2022/08/27 00:54:18;;;;;;;10.13;7.17;;;;;;;;;;4897538;29;20944;-42
2022/08/27 00:56:45;;;;;;;9.93;7.77;;;;;;;;;;4896584;29;20176;-43
2022/08/27 00:59:13;;;;;;;11.43;7.53;;;;;;;;;;4894423;29;20905;-42
2022/08/27 01:02:17;;;;;;;12.70;8.20;;;;;;;;;;4895466;29;20180;-41
2022/08/27 01:04:26;;;;;;;10.27;7.70;;;;;;;;;;4899388;29;20787;-43
2022/08/27 01:06:53;;;;;;;10.07;8.57;;;;;;;;;;4897499;28;20212;-42
2022/08/27 01:09:19;;;;;;;9.77;7.87;;;;;;;;;;4889488;29;20592;-43
2022/08/27 01:11:46;;;;;;;10.00;8.40;;;;;;;;;;4892622;28;20183;-43
2022/08/27 01:14:13;;;;;;;10.83;8.27;;;;;;;;;;4894633;29;20484;-43
2022/08/27 01:16:40;;;;;;;8.87;7.80;;;;;;;;;;4898194;29;20380;-43
2022/08/27 01:19:10;;;;;;;14.67;10.67;;;;;;;;;;4901567;29;20590;-41
2022/08/27 01:21:45;;;;;;;13.17;9.40;;;;;;;;;;4889864;29;20538;-42
2022/08/27 01:24:23;;;;;;;12.03;9.63;;;;;;;;;;4891973;29;20414;-43
2022/08/27 01:26:50;;;;;;;10.33;9.17;;;;;;;;;;4899422;29;20199;-43
2022/08/27 01:29:17;;;;;;;9.43;7.63;;;;;;;;;;4897187;29;20177;-43
2022/08/27 01:31:43;;;;;;;13.30;10.07;;;;;;;;;;4896875;29;20677;-42
2022/08/27 01:34:09;;;;;;;10.13;9.03;;;;;;;;;;4892049;29;21067;-43
2022/08/27 01:36:35;;;;;;;11.17;9.27;;;;;;;;;;4897256;29;20176;-42
2022/08/27 01:39:01;;;;;;;11.03;8.50;;;;;;;;;;4897299;29;20843;-41
2022/08/27 01:41:28;;;;;;;9.27;7.80;;;;;;;;;;4893302;29;20476;-42
2022/08/27 01:43:54;;;;;;;9.57;8.47;;;;;;;;;;4894075;29;20283;-42
2022/08/27 01:46:25;;;;;;;12.53;8.00;;;;;;;;;;4893621;29;20364;-42
2022/08/27 01:48:51;;;;;;;9.13;8.17;;;;;;;;;;4896207;29;20216;-43
2022/08/27 01:51:18;;;;;;;8.57;7.20;;;;;;;;;;4892813;29;20263;-42
2022/08/27 01:53:44;;;;;;;11.53;8.43;;;;;;;;;;4894645;28;20400;-42
2022/08/27 01:56:10;;;;;;;11.17;8.00;;;;;;;;;;4896296;29;20636;-43
2022/08/27 01:58:37;;;;;;;11.97;7.27;;;;;;;;;;4895656;29;20487;-42
2022/08/27 02:01:05;;;;;;;8.03;7.23;;;;;;;;;;4894605;29;20208;-43
2022/08/27 02:03:35;;;;;;;9.73;7.20;;;;;;;;;;4892435;29;20649;-42
2022/08/27 02:06:04;;;;;;;11.87;7.00;;;;;;;;;;4895114;29;20201;-43
2022/08/27 02:08:30;;;;;;;7.87;6.80;;;;;;;;;;4894477;29;20471;-42
2022/08/27 02:10:56;;;;;;;10.10;7.07;;;;;;;;;;4889234;29;20603;-41
2022/08/27 02:13:23;;;;;;;8.17;6.90;;;;;;;;;;4886928;29;20483;-43
2022/08/27 02:15:49;;;;;;;9.37;6.80;;;;;;;;;;4890711;29;20169;-43
2022/08/27 02:18:15;;;;;;;9.43;7.47;;;;;;;;;;4891647;29;20172;-43
2022/08/27 02:20:43;;;;;;;8.07;7.20;;;;;;;;;;4891271;29;20562;-43
2022/08/27 02:23:09;;;;;;;8.87;6.83;;;;;;;;;;4892274;29;20679;-42
2022/08/27 02:25:36;;;;;;;8.23;6.57;;;;;;;;;;4888743;29;20216;-43
2022/08/27 02:28:02;;;;;;;7.23;6.33;;;;;;;;;;4893024;29;20363;-43
2022/08/27 02:30:30;;;;;;;10.17;7.33;;;;;;;;;;4893438;28;20276;-42
2022/08/27 02:32:57;;;;;;;7.87;6.53;;;;;;;;;;4895913;29;20206;-41
2022/08/27 02:35:24;;;;;;;8.50;7.60;;;;;;;;;;4888711;29;21061;-41
2022/08/27 02:37:51;;;;;;;11.30;7.87;;;;;;;;;;4890368;28;20488;-43
2022/08/27 02:40:18;;;;;;;8.30;7.37;;;;;;;;;;4894559;28;20196;-43
2022/08/27 02:42:44;;;;;;;10.70;7.00;;;;;;;;;;4893226;29;20180;-43
2022/08/27 02:45:10;;;;;;;8.07;7.27;;;;;;;;;;4887648;29;20645;-43
2022/08/27 02:47:37;;;;;;;7.53;6.83;;;;;;;;;;4892661;29;20473;-40
2022/08/27 02:50:03;;;;;;;11.60;8.33;;;;;;;;;;4893238;29;20207;-41
2022/08/27 02:52:30;;;;;;;9.77;7.67;;;;;;;;;;4894249;29;20184;-41
2022/08/27 02:54:56;;;;;;;9.67;7.57;;;;;;;;;;4893017;29;20362;-42
2022/08/27 02:57:22;;;;;;;9.00;8.10;;;;;;;;;;4891041;29;20674;-42
2022/08/27 02:59:49;;;;;;;8.57;7.63;;;;;;;;;;4894933;29;21691;-42
2022/08/27 03:02:15;;;;;;;9.10;7.33;;;;;;;;;;4895736;29;20880;-41
2022/08/27 03:04:41;;;;;;;8.77;7.87;;;;;;;;;;4896034;29;20272;-42
2022/08/27 03:07:07;;;;;;;11.60;8.20;;;;;;;;;;4898188;29;20200;-42
2022/08/27 03:09:34;;;;;;;10.73;8.80;;;;;;;;;;4895566;29;20894;-42
2022/08/27 03:12:01;;;;;;;9.87;8.40;;;;;;;;;;4899900;29;20180;-42
2022/08/27 03:14:27;;;;;;;10.93;9.67;;;;;;;;;;4895962;29;20180;-42
2022/08/27 03:16:54;;;;;;;10.80;8.97;;;;;;;;;;4899604;29;20195;-41
2022/08/27 03:19:20;;;;;;;10.73;9.63;;;;;;;;;;4895349;29;20502;-40
2022/08/27 03:21:47;;;;;;;11.90;9.50;;;;;;;;;;4892871;29;20184;-41
2022/08/27 03:24:13;;;;;;;11.07;9.93;;;;;;;;;;4894243;29;20570;-42
2022/08/27 03:26:39;;;;;;;15.43;11.70;;;;;;;;;;4895516;29;20204;-42
2022/08/27 03:29:06;;;;;;;15.53;11.03;;;;;;;;;;4896110;29;20176;-41
2022/08/27 03:31:32;;;;;;;14.50;10.77;;;;;;;;;;4896477;29;20510;-42
2022/08/27 03:34:01;;;;;;;12.40;10.63;;;;;;;;;;4895007;29;20176;-42
2022/08/27 03:36:28;;;;;;;16.70;11.90;;;;;;;;;;4896292;29;20715;-42
2022/08/27 03:38:55;;;;;;;16.50;13.23;;;;;;;;;;4897574;29;20192;-40
2022/08/27 03:41:21;;;;;;;14.77;12.33;;;;;;;;;;4895641;29;20184;-42
2022/08/27 03:43:48;;;;;;;17.17;14.13;;;;;;;;;;4891746;29;20179;-42
2022/08/27 03:46:14;;;;;;;14.60;10.70;;;;;;;;;;4893982;29;20255;-42
2022/08/27 03:48:40;;;;;;;15.83;12.63;;;;;;;;;;4895016;29;20180;-42
2022/08/27 03:51:12;;;;;;;18.07;12.90;;;;;;;;;;4890466;29;20196;-42
2022/08/27 03:53:38;;;;;;;14.80;12.50;;;;;;;;;;4893137;28;20401;-42
2022/08/27 03:56:05;;;;;;;14.00;11.40;;;;;;;;;;4894988;29;20184;-42
2022/08/27 03:58:31;;;;;;;14.33;10.67;;;;;;;;;;4900509;29;20260;-42
2022/08/27 04:00:57;;;;;;;14.00;11.07;;;;;;;;;;4893528;29;20314;-42
2022/08/27 04:03:24;;;;;;;13.40;10.57;;;;;;;;;;4888696;29;20511;-41
2022/08/27 04:05:53;;;;;;;13.83;10.67;;;;;;;;;;4893906;29;20851;-42
2022/08/27 04:08:20;;;;;;;20.33;12.43;;;;;;;;;;4897733;29;20268;-42
2022/08/27 04:10:46;;;;;;;24.10;12.13;;;;;;;;;;4896365;29;20638;-41
2022/08/27 04:13:13;;;;;;;16.37;11.77;;;;;;;;;;4892888;29;20180;-42
2022/08/27 04:15:43;;;;;;;13.97;10.53;;;;;;;;;;4893407;29;20724;-42
2022/08/27 04:18:11;;;;;;;21.43;12.20;;;;;;;;;;4896723;29;20591;-42
2022/08/27 04:20:37;;;;;;;15.30;11.67;;;;;;;;;;4897433;29;20571;-41
2022/08/27 04:23:03;;;;;;;19.37;11.33;;;;;;;;;;4890247;29;20187;-42
2022/08/27 04:25:29;;;;;;;18.87;11.27;;;;;;;;;;4892300;29;20624;-41
2022/08/27 04:27:56;;;;;;;17.53;10.43;;;;;;;;;;4895979;29;20204;-42
2022/08/27 04:30:22;;;;;;;11.93;9.30;;;;;;;;;;4897915;29;20187;-41
2022/08/27 04:32:49;;;;;;;12.47;9.87;;;;;;;;;;4897008;29;20172;-42
2022/08/27 04:35:15;;;;;;;13.83;9.60;;;;;;;;;;4891677;28;20176;-42
2022/08/27 04:37:42;;;;;;;11.00;9.83;;;;;;;;;;4891999;29;21307;-41
2022/08/27 04:40:08;;;;;;;12.10;10.43;;;;;;;;;;4896776;29;20410;-41
2022/08/27 04:42:35;;;;;;;11.90;10.07;;;;;;;;;;4894673;29;20179;-41
2022/08/27 04:45:01;;;;;;;17.67;12.13;;;;;;;;;;4893233;29;20262;-41
2022/08/27 04:47:28;;;;;;;15.90;11.60;;;;;;;;;;4893789;29;20685;-42
2022/08/27 04:49:54;;;;;;;14.80;11.17;;;;;;;;;;4894279;29;20371;-42
2022/08/27 04:52:20;;;;;;;15.30;11.10;;;;;;;;;;4893720;29;20662;-40
2022/08/27 04:54:46;;;;;;;13.43;10.77;;;;;;;;;;4892168;29;20180;-42
2022/08/27 04:57:12;;;;;;;15.53;11.00;;;;;;;;;;4893061;29;20191;-42
2022/08/27 04:59:39;;;;;;;17.40;11.23;;;;;;;;;;4897509;29;20180;-43
2022/08/27 05:02:07;;;;;;;14.27;10.63;;;;;;;;;;4891711;29;20547;-41
2022/08/27 05:04:34;;;;;;;14.83;11.87;;;;;;;;;;4889585;29;20173;-42
2022/08/27 05:07:00;;;;;;;13.43;11.33;;;;;;;;;;4894151;29;20262;-42
2022/08/27 05:09:27;;;;;;;12.83;10.93;;;;;;;;;;4892550;29;20189;-42
2022/08/27 05:11:54;;;;;;;13.53;10.17;;;;;;;;;;4896589;28;20180;-42
2022/08/27 05:14:21;;;;;;;13.90;10.43;;;;;;;;;;4891476;29;20207;-41
2022/08/27 05:16:47;;;;;;;13.70;10.10;;;;;;;;;;4890219;28;20187;-42
2022/08/27 05:19:13;;;;;;;11.73;10.53;;;;;;;;;;4895201;28;20720;-42
2022/08/27 05:21:44;;;;;;;12.73;10.10;;;;;;;;;;4897047;29;20546;-41
2022/08/27 05:24:10;;;;;;;12.53;10.57;;;;;;;;;;4894928;29;20598;-41
2022/08/27 05:26:36;;;;;;;13.53;9.67;;;;;;;;;;4892656;28;20584;-42
2022/08/27 05:29:04;;;;;;;12.30;9.70;;;;;;;;;;4896250;29;20184;-42
2022/08/27 05:31:30;;;;;;;12.10;10.80;;;;;;;;;;4901302;29;20368;-42
2022/08/27 05:33:56;;;;;;;11.40;10.03;;;;;;;;;;4898320;29;20274;-41
2022/08/27 05:36:28;;;;;;;13.70;10.27;;;;;;;;;;4891856;29;20175;-42
2022/08/27 05:38:54;;;;;;;14.13;11.00;;;;;;;;;;4895579;29;20600;-43
2022/08/27 05:41:26;;;;;;;12.03;10.60;;;;;;;;;;4897861;29;20207;-43
2022/08/27 05:43:53;;;;;;;12.90;9.80;;;;;;;;;;4895684;29;20739;-41
2022/08/27 05:46:20;;;;;;;11.07;9.87;;;;;;;;;;4890550;29;20204;-43
2022/08/27 05:48:48;;;;;;;15.63;10.27;;;;;;;;;;4897719;29;20922;-40
2022/08/27 05:51:14;;;;;;;10.97;9.87;;;;;;;;;;4894712;29;20195;-42
2022/08/27 05:53:41;;;;;;;13.17;9.37;;;;;;;;;;4895292;29;20337;-43
2022/08/27 05:56:14;;;;;;;14.93;9.83;;;;;;;;;;4890262;29;20187;-42
2022/08/27 06:01:25;;;;;;;14.90;8.50;;;;;;;;;;4894107;29;20194;-43
2022/08/27 06:03:51;;;;;;;13.27;9.83;;;;;;;;;;4896873;29;20181;-42
2022/08/27 06:06:18;;;;;;;10.50;8.53;;;;;;;;;;4894180;29;21173;-42
2022/08/27 06:08:44;;;;;;;9.23;8.00;;;;;;;;;;4891608;29;20483;-42
2022/08/27 06:11:10;;;;;;;11.00;7.97;;;;;;;;;;4894378;29;20616;-43
2022/08/27 06:13:37;;;;;;;10.57;7.70;;;;;;;;;;4893496;29;20303;-42
2022/08/27 06:16:08;;;;;;;12.23;7.77;;;;;;;;;;4892685;28;20760;-42
2022/08/27 06:18:34;;;;;;;12.83;9.40;;;;;;;;;;4894075;29;20202;-43
2022/08/27 06:21:00;;;;;;;11.30;8.57;;;;;;;;;;4890185;29;20255;-43
2022/08/27 06:23:27;;;;;;;13.43;8.33;;;;;;;;;;4892002;29;20307;-41
2022/08/27 06:25:53;;;;;;;11.87;8.70;;;;;;;;;;4894176;29;20503;-43
2022/08/27 06:28:20;;;;;;;9.43;8.17;;;;;;;;;;4897932;29;20275;-43
2022/08/27 06:30:46;;;;;;;10.93;8.47;;;;;;;;;;4892597;29;20704;-42
2022/08/27 06:33:13;;;;;;;12.83;8.83;;;;;;;;;;4890558;29;20184;-43
2022/08/27 06:35:39;;;;;;;11.10;7.83;;;;;;;;;;4893752;29;20487;-43
2022/08/27 06:38:06;;;;;;;13.53;9.70;;;;;;;;;;4895945;29;20636;-43
2022/08/27 06:40:32;;;;;;;12.43;9.77;;;;;;;;;;4884425;29;20625;-43
2022/08/27 06:42:59;;;;;;;12.17;8.60;;;;;;;;;;4890806;29;20345;-42
2022/08/27 06:45:28;;;;;;;12.30;8.30;;;;;;;;;;4891942;29;20191;-43
2022/08/27 06:47:54;;;;;;;10.50;7.70;;;;;;;;;;4895734;29;20731;-42
2022/08/27 06:50:20;;;;;;;8.73;7.83;;;;;;;;;;4896029;29;20717;-40
2022/08/27 06:52:46;;;;;;;12.50;8.47;;;;;;;;;;4890857;29;20180;-40
2022/08/27 06:55:13;;;;;;;13.00;7.80;;;;;;;;;;4888931;29;20207;-40
2022/08/27 06:57:39;;;;;;;10.63;7.67;;;;;;;;;;4894361;29;20650;-43
2022/08/27 07:00:07;;;;;;;12.53;8.47;;;;;;;;;;4891836;29;20295;-42
2022/08/27 07:02:33;;;;;;;10.27;8.10;;;;;;;;;;4893726;29;20184;-42
2022/08/27 07:04:59;;;;;;;7.83;6.57;;;;;;;;;;4892594;28;20613;-42
2022/08/27 07:07:26;;;;;;;9.77;7.20;;;;;;;;;;4889757;29;20207;-40
2022/08/27 07:09:52;;;;;;;11.90;7.67;;;;;;;;;;4894406;29;20637;-42
2022/08/27 07:12:20;;;;;;;11.57;8.10;;;;;;;;;;4889058;29;20475;-42
2022/08/27 07:14:46;;;;;;;14.33;8.10;;;;;;;;;;4891691;29;20184;-43
2022/08/27 07:17:12;;;;;;;13.73;7.90;;;;;;;;;;4892351;29;20954;-42
2022/08/27 07:19:38;;;;;;;10.27;8.20;;;;;;;;;;4892981;29;20188;-43
2022/08/27 07:22:05;;;;;;;10.67;7.67;;;;;;;;;;4896852;29;20793;-43
2022/08/27 07:24:31;;;;;;;11.20;8.20;;;;;;;;;;4892804;29;20307;-43
2022/08/27 07:26:58;;;;;;;11.70;7.47;;;;;;;;;;4890748;29;20717;-43
2022/08/27 07:29:24;;;;;;;12.77;8.73;;;;;;;;;;4894772;29;20294;-43
2022/08/27 07:31:50;;;;;;;10.23;8.10;;;;;;;;;;4888344;29;20275;-42
2022/08/27 07:34:16;;;;;;;12.63;9.37;;;;;;;;;;4888421;29;20668;-43
2022/08/27 07:36:42;;;;;;;15.70;8.90;;;;;;;;;;4892628;29;20184;-43
2022/08/27 07:39:08;;;;;;;11.67;8.77;;;;;;;;;;4891132;29;21017;-43
2022/08/27 07:44:24;;;;;;;9.47;7.90;;;;;;;;;;4892650;29;20413;-43
2022/08/27 07:44:24;;;;;;;13.30;8.60;;;;;;;;;;4892912;28;20255;-42
2022/08/27 07:46:50;;;;;;;12.60;9.43;;;;;;;;;;4889387;28;20616;-43
2022/08/27 07:49:17;;;;;;;12.00;9.33;;;;;;;;;;4888867;28;20192;-42
2022/08/27 07:51:44;;;;;;;11.70;8.73;;;;;;;;;;4889672;29;20248;-41
2022/08/27 07:54:10;;;;;;;11.60;9.57;;;;;;;;;;4892408;29;20815;-42
2022/08/27 07:56:36;;;;;;;9.80;8.43;;;;;;;;;;4896554;29;20617;-42
2022/08/27 07:59:02;;;;;;;14.20;10.60;;;;;;;;;;4896729;29;20680;-40
2022/08/27 08:01:29;;;;;;;9.77;8.23;;;;;;;;;;4898501;28;20188;-41
2022/08/27 08:03:55;;;;;;;13.93;10.10;;;;;;;;;;4900647;29;20196;-43
2022/08/27 08:06:21;;;;;;;10.93;8.83;;;;;;;;;;4902658;29;20480;-41
2022/08/27 08:08:48;;;;;;;23.43;9.60;;;;;;;;;;4902174;29;20184;-43
2022/08/27 08:11:15;;;;;;;12.03;9.10;;;;;;;;;;4898988;29;20199;-42
2022/08/27 08:13:42;;;;;;;12.90;9.83;;;;;;;;;;4897188;28;20606;-41
2022/08/27 08:16:08;;;;;;;10.47;9.33;;;;;;;;;;4900737;29;20608;-41
2022/08/27 08:18:35;;;;;;;7.97;7.20;;;;;;;;;;4897475;28;20185;-42
2022/08/27 08:21:02;;;;;;;14.53;9.77;;;;;;;;;;4889985;29;20266;-43
2022/08/27 08:23:29;;;;;;;12.83;9.97;;;;;;;;;;4894255;29;20235;-43
2022/08/27 08:25:56;;;;;;;15.77;9.47;;;;;;;;;;4895710;29;20178;-43
2022/08/27 08:28:22;;;;;;;10.10;8.33;;;;;;;;;;4900102;29;20860;-43
2022/08/27 08:30:48;;;;;;;14.77;9.20;;;;;;;;;;4897022;29;20173;-43
2022/08/27 08:33:15;;;;;;;11.57;9.67;;;;;;;;;;4894639;29;20179;-42
2022/08/27 08:35:42;;;;;;;11.37;8.90;;;;;;;;;;4900696;29;20203;-43
2022/08/27 08:38:08;;;;;;;14.27;9.73;;;;;;;;;;4897264;29;20187;-42
2022/08/27 08:40:36;;;;;;;13.37;10.40;;;;;;;;;;4894727;29;20664;-43
2022/08/27 08:43:04;;;;;;;13.03;9.97;;;;;;;;;;4893368;28;20798;-42
2022/08/27 08:45:33;;;;;;;13.80;10.83;;;;;;;;;;4897888;29;20188;-43
2022/08/27 08:48:06;;;;;;;18.77;12.67;;;;;;;;;;4897721;29;20617;-42
2022/08/27 08:50:33;;;;;;;10.07;8.77;;;;;;;;;;4894172;29;20677;-43
2022/08/27 08:53:06;;;;;;;12.27;10.97;;;;;;;;;;4893690;29;20545;-41
2022/08/27 08:55:38;;;;;;;15.97;10.50;;;;;;;;;;4896878;29;20581;-42
2022/08/27 08:58:17;;;;;;;15.13;10.90;;;;;;;;;;4898382;29;20175;-41
2022/08/27 09:00:44;;;;;;;12.43;10.27;;;;;;;;;;4895865;29;20180;-42
2022/08/27 09:03:12;;;;;;;13.77;10.17;;;;;;;;;;4896189;29;20572;-42
2022/08/27 09:05:40;;;;;;;15.40;9.40;;;;;;;;;;4904583;28;20618;-41
2022/08/27 09:08:12;;;;;;;9.43;8.43;;;;;;;;;;4897362;29;20413;-42
2022/08/27 09:10:51;;;;;;;15.00;9.47;;;;;;;;;;4899354;29;20239;-42
2022/08/27 09:13:20;;;;;;;11.27;9.10;;;;;;;;;;4892955;29;20187;-41
2022/08/27 09:15:46;;;;;;;11.77;9.57;;;;;;;;;;4898071;29;20534;-42
2022/08/27 09:18:13;;;;;;;17.60;9.80;;;;;;;;;;4900570;29;20287;-41
2022/08/27 09:20:41;;;;;;;26.37;16.17;;;;;;;;;;4899513;29;20495;-43
2022/08/27 09:23:22;;;;;;;14.60;11.50;;;;;;;;;;4897689;29;20526;-42
2022/08/27 09:25:48;;;;;;;11.83;9.90;;;;;;;;;;4894842;29;20582;-43
2022/08/27 09:31:05;;;;;;;13.90;9.27;;;;;;;;;;4901277;29;20302;-43
2022/08/27 09:33:31;;;;;;;15.43;8.80;;;;;;;;;;4898748;29;20275;-43
2022/08/27 09:36:01;;;;;;;12.63;9.77;;;;;;;;;;4893885;29;20211;-42
2022/08/27 09:38:28;;;;;;;13.17;10.80;;;;;;;;;;4899821;29;20696;-44
2022/08/27 09:40:56;;;;;;;16.63;12.07;;;;;;;;;;4900205;29;20494;-43
2022/08/27 09:43:25;;;;;;;15.53;11.90;;;;;;;;;;4897168;29;21035;-43
2022/08/27 09:46:04;;;;;;;19.63;15.60;;;;;;;;;;4896776;29;20488;-43
2022/08/27 09:48:31;;;;;;;20.77;16.57;;;;;;;;;;4895729;29;20278;-43
2022/08/27 09:51:00;;;;;;;24.60;16.37;;;;;;;;;;4901974;29;20183;-43
2022/08/27 09:53:26;;;;;;;23.73;13.97;;;;;;;;;;4899575;29;21089;-43
2022/08/27 09:55:58;;;;;;;21.30;12.13;;;;;;;;;;4896217;29;20191;-43
2022/08/27 09:58:27;;;;;;;17.67;8.67;;;;;;;;;;4897241;29;20180;-43
2022/08/27 10:01:01;;;;;;;14.50;7.27;;;;;;;;;;4898936;29;20176;-42
2022/08/27 10:03:28;;;;;;;21.10;7.10;;;;;;;;;;4899106;29;20701;-44
2022/08/27 10:05:54;;;;;;;15.00;7.03;;;;;;;;;;4897209;29;20387;-45
2022/08/27 10:08:29;;;;;;;15.00;7.43;;;;;;;;;;4895744;28;20959;-42
2022/08/27 10:11:00;;;;;;;17.63;7.57;;;;;;;;;;4900517;29;20198;-44
2022/08/27 10:13:29;;;;;;;16.57;7.30;;;;;;;;;;4898872;29;20547;-43
2022/08/27 10:16:06;;;;;;;17.83;7.87;;;;;;;;;;4899158;29;20176;-43
2022/08/27 10:18:32;;;;;;;14.40;6.70;;;;;;;;;;4897402;29;20510;-43
2022/08/27 10:20:58;;;;;;;12.80;7.07;;;;;;;;;;4898904;29;20176;-43
2022/08/27 10:23:33;;;;;;;12.53;8.17;;;;;;;;;;4901283;29;20196;-43
2022/08/27 10:26:07;;;;;;;11.00;8.37;;;;;;;;;;4901183;29;20176;-41
2022/08/27 10:28:39;;;;;;;13.63;8.80;;;;;;;;;;4898326;29;20446;-43
2022/08/27 10:31:23;;;;;;;13.77;7.97;;;;;;;;;;4897232;29;20518;-43
2022/08/27 10:34:10;;;;;;;15.03;7.50;;;;;;;;;;4896748;29;20835;-43
2022/08/27 10:36:43;;;;;;;10.50;7.13;;;;;;;;;;4900116;29;20192;-42
2022/08/27 10:39:09;;;;;;;11.60;7.07;;;;;;;;;;4897003;29;20303;-41
2022/08/27 10:42:07;;;;;;;10.13;6.50;;;;;;;;;;4895957;29;20180;-42
2022/08/27 10:44:36;;;;;;;12.40;7.17;;;;;;;;;;4899671;29;20179;-42
2022/08/27 10:47:09;;;;;;;10.30;6.47;;;;;;;;;;4896835;29;20936;-42
2022/08/27 10:49:50;;;;;;;11.93;6.10;;;;;;;;;;4895106;29;20733;-42
2022/08/27 10:52:22;;;;;;;8.57;4.43;;;;;;;;;;4892779;29;20262;-44
2022/08/27 10:55:00;;;;;;;9.10;3.77;;;;;;;;;;4899795;29;20872;-43
2022/08/27 10:57:32;;;;;;;4.63;1.80;;;;;;;;;;4899598;29;20279;-44
2022/08/27 10:59:58;;;;;;;5.20;2.07;;;;;;;;;;4888581;29;20187;-44
2022/08/27 11:02:32;;;;;;;2.57;2.20;;;;;;;;;;4892634;29;20673;-43
2022/08/27 11:05:00;;;;;;;5.43;2.40;;;;;;;;;;4899902;29;20196;-42
2022/08/27 11:07:41;;;;;;;5.27;1.77;;;;;;;;;;4894447;29;20211;-43
2022/08/27 11:10:13;;;;;;;3.43;1.80;;;;;;;;;;4895037;29;20636;-41
2022/08/27 11:12:41;;;;;;;5.07;2.30;;;;;;;;;;4888447;29;20606;-43
2022/08/27 11:15:09;;;;;;;5.37;2.20;;;;;;;;;;4888124;29;20180;-42
2022/08/27 11:17:56;;;;;;;3.90;2.27;;;;;;;;;;4896649;29;20291;-42
2022/08/27 11:20:24;;;;;;;3.13;2.33;;;;;;;;;;4899972;29;20180;-41
2022/08/27 11:22:54;;;;;;;2.90;1.93;;;;;;;;;;4892791;29;20259;-43
2022/08/27 11:25:39;;;;;;;5.03;2.33;;;;;;;;;;4891992;29;20192;-43
2022/08/27 11:28:06;;;;;;;2.57;1.97;;;;;;;;;;4892410;29;20409;-43
2022/08/27 11:30:40;;;;;;;4.87;2.57;;;;;;;;;;4899038;29;20632;-42
2022/08/27 11:33:17;;;;;;;5.43;2.60;;;;;;;;;;4899409;29;20207;-43
2022/08/27 11:35:58;;;;;;;4.57;3.20;;;;;;;;;;4896232;28;20290;-40
2022/08/27 11:38:28;;;;;;;6.80;4.00;;;;;;;;;;4894821;29;20279;-42
2022/08/27 11:40:58;;;;;;;8.27;4.17;;;;;;;;;;4897468;29;20184;-42
2022/08/27 11:43:26;;;;;;;6.50;4.43;;;;;;;;;;4901827;29;20418;-43
2022/08/27 11:45:57;;;;;;;5.20;4.40;;;;;;;;;;4896690;29;20196;-43
2022/08/27 11:48:28;;;;;;;6.70;4.47;;;;;;;;;;4898458;28;20422;-43
2022/08/27 11:50:56;;;;;;;5.27;4.10;;;;;;;;;;4897311;29;20309;-43
2022/08/27 11:53:31;;;;;;;7.07;4.50;;;;;;;;;;4900740;29;20648;-43
2022/08/27 11:55:57;;;;;;;5.90;4.43;;;;;;;;;;4894285;29;20762;-44
2022/08/27 11:58:25;;;;;;;5.97;4.30;;;;;;;;;;4886397;28;20179;-43
2022/08/27 12:00:52;;;;;;;6.33;5.00;;;;;;;;;;4891687;29;21090;-43
2022/08/27 12:03:18;;;;;;;8.60;4.60;;;;;;;;;;4891926;29;20641;-43
2022/08/27 12:05:45;;;;;;;5.03;4.53;;;;;;;;;;4898827;29;20661;-43
2022/08/27 12:08:16;;;;;;;7.00;5.27;;;;;;;;;;4892527;29;21988;-42
2022/08/27 12:11:06;;;;;;;5.20;4.50;;;;;;;;;;4892408;29;20207;-41
2022/08/27 12:13:37;;;;;;;8.93;5.07;;;;;;;;;;4899141;29;20696;-41
2022/08/27 12:16:18;;;;;;;8.67;5.83;;;;;;;;;;4899064;29;21385;-40
2022/08/27 12:18:53;;;;;;;7.83;5.60;;;;;;;;;;4897260;29;20603;-40
2022/08/27 12:21:33;;;;;;;9.43;5.10;;;;;;;;;;4895061;29;20533;-42
2022/08/27 12:24:18;;;;;;;8.23;6.30;;;;;;;;;;4898572;29;20196;-40
2022/08/27 12:26:58;;;;;;;7.57;6.13;;;;;;;;;;4901155;29;20200;-40
2022/08/27 12:29:30;;;;;;;7.87;6.30;;;;;;;;;;4897117;29;20212;-40
2022/08/27 12:32:02;;;;;;;7.80;5.63;;;;;;;;;;4896405;29;20890;-39
2022/08/27 12:34:29;;;;;;;8.97;6.20;;;;;;;;;;4890724;29;20180;-42
2022/08/27 12:36:55;;;;;;;9.00;6.07;;;;;;;;;;4891908;29;20360;-40
2022/08/27 12:39:24;;;;;;;9.00;5.97;;;;;;;;;;4895119;29;20184;-40
2022/08/27 12:41:50;;;;;;;11.73;6.37;;;;;;;;;;4891590;29;20184;-42
2022/08/27 12:44:25;;;;;;;7.17;5.90;;;;;;;;;;4926025;28;22315;-41
2022/08/27 12:46:53;;;;;;;10.40;6.13;;;;;;;;;;4899077;28;20452;-42
2022/08/27 12:49:21;;;;;;;10.20;6.97;;;;;;;;;;4895447;29;20356;-41
2022/08/27 12:51:47;;;;;;;6.60;5.90;;;;;;;;;;4899308;29;20180;-42
2022/08/27 12:54:19;;;;;;;6.80;5.87;;;;;;;;;;4895079;29;20280;-40
2022/08/27 12:56:51;;;;;;;9.07;6.47;;;;;;;;;;4900191;29;20599;-42
2022/08/27 12:59:26;;;;;;;6.27;5.63;;;;;;;;;;4899685;28;20184;-41
2022/08/27 13:02:11;;;;;;;10.57;7.60;;;;;;;;;;4897341;29;20274;-41
2022/08/27 13:04:39;;;;;;;10.67;8.50;;;;;;;;;;4895412;28;20729;-38
2022/08/27 13:07:05;;;;;;;11.30;10.07;;;;;;;;;;4894566;29;20595;-41
2022/08/27 13:09:33;;;;;;;12.17;9.70;;;;;;;;;;4896443;29;20188;-40
2022/08/27 13:12:00;;;;;;;11.40;10.00;;;;;;;;;;4898828;29;20770;-42
2022/08/27 13:14:27;;;;;;;11.10;9.33;;;;;;;;;;4898437;29;21043;-42
2022/08/27 13:16:53;;;;;;;12.27;9.73;;;;;;;;;;4898206;29;20656;-42
2022/08/27 13:19:28;;;;;;;13.73;10.70;;;;;;;;;;4894570;29;20747;-41
2022/08/27 13:21:54;;;;;;;14.57;12.53;;;;;;;;;;4896700;29;20201;-41
2022/08/27 13:24:34;;;;;;;14.83;13.07;;;;;;;;;;4895034;29;20606;-41
2022/08/27 13:27:02;;;;;;;14.67;12.20;;;;;;;;;;4899493;29;20211;-42
2022/08/27 13:29:28;;;;;;;14.77;12.77;;;;;;;;;;4894637;29;20291;-41
2022/08/27 13:31:55;;;;;;;14.97;11.70;;;;;;;;;;4895863;29;20184;-41
2022/08/27 13:34:25;;;;;;;13.30;11.77;;;;;;;;;;4895618;29;21053;-42
2022/08/27 13:36:57;;;;;;;14.20;11.07;;;;;;;;;;4894531;29;20223;-41
2022/08/27 13:39:23;;;;;;;13.50;10.87;;;;;;;;;;4899199;29;20312;-42
2022/08/27 13:41:52;;;;;;;12.17;10.90;;;;;;;;;;4898544;29;20184;-42
2022/08/27 13:44:18;;;;;;;15.23;10.03;;;;;;;;;;4912284;28;20176;-42
2022/08/27 13:46:47;;;;;;;14.37;11.77;;;;;;;;;;4897019;29;20294;-43
2022/08/27 13:49:24;;;;;;;13.60;10.43;;;;;;;;;;4900118;29;20644;-42
2022/08/27 13:51:57;;;;;;;11.97;10.37;;;;;;;;;;4893931;29;20480;-43
2022/08/27 13:54:23;;;;;;;9.60;8.43;;;;;;;;;;4894290;29;20215;-42
2022/08/27 13:56:49;;;;;;;13.93;9.23;;;;;;;;;;4894122;29;20666;-41
2022/08/27 13:59:23;;;;;;;11.73;9.50;;;;;;;;;;4897631;29;20270;-41
2022/08/27 14:02:00;;;;;;;10.33;9.00;;;;;;;;;;4895140;29;20188;-43
2022/08/27 14:04:35;;;;;;;11.33;9.70;;;;;;;;;;4891250;29;20219;-43
2022/08/27 14:07:06;;;;;;;11.20;10.00;;;;;;;;;;4893099;29;20697;-43
2022/08/27 14:09:32;;;;;;;12.70;9.10;;;;;;;;;;4897943;29;20179;-43
2022/08/27 14:12:04;;;;;;;11.67;8.87;;;;;;;;;;4893749;29;20180;-43
2022/08/27 14:14:35;;;;;;;11.10;8.80;;;;;;;;;;4893843;29;20621;-43
2022/08/27 14:17:03;;;;;;;12.87;8.10;;;;;;;;;;4896928;29;20845;-43
2022/08/27 14:19:33;;;;;;;12.93;6.77;;;;;;;;;;4901361;29;20638;-43
2022/08/27 14:21:59;;;;;;;8.23;7.00;;;;;;;;;;4894976;29;21014;-42
2022/08/27 14:24:25;;;;;;;10.20;7.00;;;;;;;;;;4895139;29;20199;-43
2022/08/27 14:26:55;;;;;;;8.17;7.07;;;;;;;;;;4894718;29;20220;-43
2022/08/27 14:29:21;;;;;;;9.20;6.03;;;;;;;;;;4899838;29;20180;-43
2022/08/27 14:31:47;;;;;;;8.23;6.70;;;;;;;;;;4895499;29;20820;-43
2022/08/27 14:34:14;;;;;;;6.77;5.87;;;;;;;;;;4891854;29;20775;-43
2022/08/27 14:36:41;;;;;;;8.00;5.90;;;;;;;;;;4892648;29;20252;-43
2022/08/27 14:39:08;;;;;;;6.10;5.50;;;;;;;;;;4893526;29;20955;-43
2022/08/27 14:41:34;;;;;;;7.57;4.90;;;;;;;;;;4898626;29;20197;-43
2022/08/27 14:44:01;;;;;;;4.33;3.60;;;;;;;;;;4902282;28;20229;-39